This is the latest recevied weather packets stored in our database for station/object UHMM. If no packets are shown the sender has not sent any weather packets the latest 10 day(s).
| Time | Temp. | Humidity | Pressure | Rain* | Wind** | Luminosity | Snow |
|---|---|---|---|---|---|---|---|
| 1777602612 | 2.78° C | 64% | 1008 hPa | - | - | - | - |
| 1777600808 | 3.89° C | 51% | 1008 hPa | - | - | - | - |
| 1777599009 | 3.89° C | 48% | 1008 hPa | - | - | - | - |
| 1777597209 | 2.78° C | 51% | 1008 hPa | - | - | - | - |
| 1777593609 | 1.67° C | 55% | 1008 hPa | - | - | - | - |
| 1777590007 | 1.67° C | 55% | 1008 hPa | - | - | - | - |
| 1777588211 | -1.11° C | 68% | 1009 hPa | - | - | - | - |
| 1777586409 | 0° C | 59% | 1009 hPa | - | - | - | - |
| 1777582811 | -6.11° C | 79% | 1008 hPa | - | - | - | - |
| 1777581009 | -6.11° C | 79% | 1008 hPa | - | - | - | - |
| 1777579209 | -9.44° C | 92% | 1008 hPa | - | - | - | - |
| 1777575609 | -10° C | 92% | 1008 hPa | - | - | - | - |
| 1777573810 | -10° C | 92% | 1008 hPa | - | - | - | - |
| 1777572009 | -9.44° C | 92% | 1008 hPa | - | - | - | - |
| 1777570214 | -9.44° C | 92% | 1008 hPa | - | - | - | - |
| 1777568412 | -6.11° C | 85% | 1008 hPa | - | - | - | - |
| 1777566611 | -6.11° C | 85% | 1008 hPa | - | - | - | - |
| 1777564811 | -5° C | 92% | 1008 hPa | - | - | - | - |
| 1777563009 | -5° C | 92% | 1008 hPa | - | - | - | - |
| 1777561210 | -5° C | 85% | 1008 hPa | - | - | - | - |
| 1777559409 | -5° C | 85% | 1008 hPa | - | - | - | - |
| 1777557614 | -6.11° C | 85% | 1008 hPa | - | - | - | - |
| 1777555809 | -6.11° C | 85% | 1008 hPa | - | - | - | - |
| 1777554008 | -4.44° C | 79% | 1008 hPa | - | - | - | - |
| 1777552210 | -4.44° C | 79% | 1008 hPa | - | - | - | - |
* Rain since midnight (hover to see other rain measurements)
** Current wind speed in m/s (hover to see current wind gust speed)